sensor_id;sensor_type;location;lat;lon;timestamp;temperature;humidity
68387;DHT22;55338;43.062;25.624;2022-08-21T00:02:19;24.30;80.50
68387;DHT22;55338;43.062;25.624;2022-08-21T00:04:46;24.10;82.50
68387;DHT22;55338;43.062;25.624;2022-08-21T00:07:12;23.80;84.20
68387;DHT22;55338;43.062;25.624;2022-08-21T00:09:38;23.80;84.90
68387;DHT22;55338;43.062;25.624;2022-08-21T00:12:04;23.70;85.50
68387;DHT22;55338;43.062;25.624;2022-08-21T00:14:31;23.60;86.70
68387;DHT22;55338;43.062;25.624;2022-08-21T00:16:57;23.60;87.70
68387;DHT22;55338;43.062;25.624;2022-08-21T00:19:23;23.40;88.90
68387;DHT22;55338;43.062;25.624;2022-08-21T00:21:52;23.30;89.70
68387;DHT22;55338;43.062;25.624;2022-08-21T00:24:19;23.20;90.80
68387;DHT22;55338;43.062;25.624;2022-08-21T00:26:49;23.00;91.00
68387;DHT22;55338;43.062;25.624;2022-08-21T00:29:15;23.00;90.30
68387;DHT22;55338;43.062;25.624;2022-08-21T00:31:42;23.10;90.40
68387;DHT22;55338;43.062;25.624;2022-08-21T00:34:09;23.10;91.40
68387;DHT22;55338;43.062;25.624;2022-08-21T00:36:35;23.10;92.30
68387;DHT22;55338;43.062;25.624;2022-08-21T00:39:03;23.10;94.00
68387;DHT22;55338;43.062;25.624;2022-08-21T00:41:29;23.10;93.50
68387;DHT22;55338;43.062;25.624;2022-08-21T00:43:55;23.00;94.10
68387;DHT22;55338;43.062;25.624;2022-08-21T00:46:22;23.00;95.60
68387;DHT22;55338;43.062;25.624;2022-08-21T00:48:48;23.00;95.30
68387;DHT22;55338;43.062;25.624;2022-08-21T00:51:20;23.00;95.80
68387;DHT22;55338;43.062;25.624;2022-08-21T00:53:55;23.10;97.20
68387;DHT22;55338;43.062;25.624;2022-08-21T00:56:24;23.00;97.10
68387;DHT22;55338;43.062;25.624;2022-08-21T00:58:52;23.00;97.20
68387;DHT22;55338;43.062;25.624;2022-08-21T01:01:19;23.00;97.80
68387;DHT22;55338;43.062;25.624;2022-08-21T01:03:50;23.00;98.70
68387;DHT22;55338;43.062;25.624;2022-08-21T01:06:16;23.00;98.50
68387;DHT22;55338;43.062;25.624;2022-08-21T01:08:42;23.00;99.90
68387;DHT22;55338;43.062;25.624;2022-08-21T01:11:08;23.00;99.20
68387;DHT22;55338;43.062;25.624;2022-08-21T01:13:36;22.90;99.30
68387;DHT22;55338;43.062;25.624;2022-08-21T01:16:08;22.90;98.90
68387;DHT22;55338;43.062;25.624;2022-08-21T01:18:34;22.80;99.20
68387;DHT22;55338;43.062;25.624;2022-08-21T01:23:25;22.80;99.70
68387;DHT22;55338;43.062;25.624;2022-08-21T01:25:51;22.80;99.50
68387;DHT22;55338;43.062;25.624;2022-08-21T01:28:23;22.70;99.90
68387;DHT22;55338;43.062;25.624;2022-08-21T01:30:50;22.70;99.90
68387;DHT22;55338;43.062;25.624;2022-08-21T01:33:18;22.60;99.90
68387;DHT22;55338;43.062;25.624;2022-08-21T01:35:45;22.60;99.50
68387;DHT22;55338;43.062;25.624;2022-08-21T01:38:11;22.60;99.20
68387;DHT22;55338;43.062;25.624;2022-08-21T01:40:37;22.70;99.90
68387;DHT22;55338;43.062;25.624;2022-08-21T01:43:03;22.70;99.90
68387;DHT22;55338;43.062;25.624;2022-08-21T01:45:29;22.60;99.90
68387;DHT22;55338;43.062;25.624;2022-08-21T01:47:55;22.70;99.90
68387;DHT22;55338;43.062;25.624;2022-08-21T01:50:22;22.70;99.90
68387;DHT22;55338;43.062;25.624;2022-08-21T01:52:48;22.70;99.90
68387;DHT22;55338;43.062;25.624;2022-08-21T01:55:15;22.60;99.90
68387;DHT22;55338;43.062;25.624;2022-08-21T01:57:41;22.60;99.90
68387;DHT22;55338;43.062;25.624;2022-08-21T02:00:11;22.50;99.90
68387;DHT22;55338;43.062;25.624;2022-08-21T02:02:38;22.60;99.90
68387;DHT22;55338;43.062;25.624;2022-08-21T02:05:06;22.60;99.90
68387;DHT22;55338;43.062;25.624;2022-08-21T02:07:41;22.50;99.90
68387;DHT22;55338;43.062;25.624;2022-08-21T02:10:09;22.50;99.90
68387;DHT22;55338;43.062;25.624;2022-08-21T02:12:35;22.50;99.90
68387;DHT22;55338;43.062;25.624;2022-08-21T02:15:03;22.50;99.90
68387;DHT22;55338;43.062;25.624;2022-08-21T02:17:45;22.50;99.90
68387;DHT22;55338;43.062;25.624;2022-08-21T02:20:37;22.50;99.90
68387;DHT22;55338;43.062;25.624;2022-08-21T02:23:02;22.50;99.90
68387;DHT22;55338;43.062;25.624;2022-08-21T02:25:29;22.50;99.90
68387;DHT22;55338;43.062;25.624;2022-08-21T02:27:56;22.50;99.90
68387;DHT22;55338;43.062;25.624;2022-08-21T02:30:56;22.50;99.90
68387;DHT22;55338;43.062;25.624;2022-08-21T02:33:22;22.50;99.90
68387;DHT22;55338;43.062;25.624;2022-08-21T02:35:48;22.50;99.90
68387;DHT22;55338;43.062;25.624;2022-08-21T02:38:19;22.40;99.90
68387;DHT22;55338;43.062;25.624;2022-08-21T02:40:48;22.30;99.90
68387;DHT22;55338;43.062;25.624;2022-08-21T02:43:15;22.30;99.90
68387;DHT22;55338;43.062;25.624;2022-08-21T02:45:43;22.30;99.90
68387;DHT22;55338;43.062;25.624;2022-08-21T02:48:11;22.30;99.90
68387;DHT22;55338;43.062;25.624;2022-08-21T02:50:40;22.20;99.90
68387;DHT22;55338;43.062;25.624;2022-08-21T02:53:07;22.10;99.90
68387;DHT22;55338;43.062;25.624;2022-08-21T02:55:35;22.10;99.90
68387;DHT22;55338;43.062;25.624;2022-08-21T02:58:03;22.10;99.90
68387;DHT22;55338;43.062;25.624;2022-08-21T03:01:02;22.20;99.90
68387;DHT22;55338;43.062;25.624;2022-08-21T03:03:32;22.20;99.90
68387;DHT22;55338;43.062;25.624;2022-08-21T03:05:59;22.10;99.90
68387;DHT22;55338;43.062;25.624;2022-08-21T03:08:25;22.20;99.90
68387;DHT22;55338;43.062;25.624;2022-08-21T03:10:52;22.20;99.90
68387;DHT22;55338;43.062;25.624;2022-08-21T03:13:19;22.30;99.90
68387;DHT22;55338;43.062;25.624;2022-08-21T03:15:47;22.30;99.90
68387;DHT22;55338;43.062;25.624;2022-08-21T03:18:13;22.30;99.90
68387;DHT22;55338;43.062;25.624;2022-08-21T03:20:41;22.30;99.90
68387;DHT22;55338;43.062;25.624;2022-08-21T03:23:07;22.30;99.90
68387;DHT22;55338;43.062;25.624;2022-08-21T03:25:34;22.20;99.90
68387;DHT22;55338;43.062;25.624;2022-08-21T03:28:01;22.10;99.90
68387;DHT22;55338;43.062;25.624;2022-08-21T03:30:28;22.10;99.90
68387;DHT22;55338;43.062;25.624;2022-08-21T03:33:25;22.10;99.90
68387;DHT22;55338;43.062;25.624;2022-08-21T03:36:05;22.10;99.90
68387;DHT22;55338;43.062;25.624;2022-08-21T03:38:33;22.10;99.90
68387;DHT22;55338;43.062;25.624;2022-08-21T03:41:00;22.10;99.90
68387;DHT22;55338;43.062;25.624;2022-08-21T03:43:26;22.20;99.90
68387;DHT22;55338;43.062;25.624;2022-08-21T03:45:52;22.20;99.90
68387;DHT22;55338;43.062;25.624;2022-08-21T03:48:19;22.30;99.90
68387;DHT22;55338;43.062;25.624;2022-08-21T03:51:16;22.40;99.90
68387;DHT22;55338;43.062;25.624;2022-08-21T03:53:42;22.40;99.90
68387;DHT22;55338;43.062;25.624;2022-08-21T03:56:08;22.40;99.90
68387;DHT22;55338;43.062;25.624;2022-08-21T03:58:34;22.50;99.90
68387;DHT22;55338;43.062;25.624;2022-08-21T04:01:02;22.60;99.90
68387;DHT22;55338;43.062;25.624;2022-08-21T04:03:28;22.60;99.90
68387;DHT22;55338;43.062;25.624;2022-08-21T04:05:54;22.60;99.90
68387;DHT22;55338;43.062;25.624;2022-08-21T04:08:19;22.70;99.90
68387;DHT22;55338;43.062;25.624;2022-08-21T04:10:48;22.80;99.90
68387;DHT22;55338;43.062;25.624;2022-08-21T04:13:14;22.80;99.90
68387;DHT22;55338;43.062;25.624;2022-08-21T04:16:14;22.90;99.90
68387;DHT22;55338;43.062;25.624;2022-08-21T04:18:41;23.00;99.90
68387;DHT22;55338;43.062;25.624;2022-08-21T04:21:09;23.00;99.90
68387;DHT22;55338;43.062;25.624;2022-08-21T04:23:36;23.10;99.90
68387;DHT22;55338;43.062;25.624;2022-08-21T04:26:02;23.10;99.90
68387;DHT22;55338;43.062;25.624;2022-08-21T04:28:28;23.10;99.90
68387;DHT22;55338;43.062;25.624;2022-08-21T04:30:55;23.10;99.90
68387;DHT22;55338;43.062;25.624;2022-08-21T04:33:21;23.20;99.90
68387;DHT22;55338;43.062;25.624;2022-08-21T04:35:48;23.20;99.90
68387;DHT22;55338;43.062;25.624;2022-08-21T04:38:14;23.20;99.90
68387;DHT22;55338;43.062;25.624;2022-08-21T04:40:40;23.10;99.90
68387;DHT22;55338;43.062;25.624;2022-08-21T04:43:08;23.10;99.90
68387;DHT22;55338;43.062;25.624;2022-08-21T04:45:38;23.10;99.90
68387;DHT22;55338;43.062;25.624;2022-08-21T04:48:07;23.10;99.90
68387;DHT22;55338;43.062;25.624;2022-08-21T04:53:22;23.20;99.90
68387;DHT22;55338;43.062;25.624;2022-08-21T04:55:48;23.20;99.90
68387;DHT22;55338;43.062;25.624;2022-08-21T04:58:17;23.20;99.90
68387;DHT22;55338;43.062;25.624;2022-08-21T05:00:45;23.20;99.90
68387;DHT22;55338;43.062;25.624;2022-08-21T05:03:11;23.20;99.90
68387;DHT22;55338;43.062;25.624;2022-08-21T05:05:38;23.20;99.90
68387;DHT22;55338;43.062;25.624;2022-08-21T05:08:07;23.40;99.90
68387;DHT22;55338;43.062;25.624;2022-08-21T05:10:34;23.30;99.90
68387;DHT22;55338;43.062;25.624;2022-08-21T05:13:01;23.30;99.90
68387;DHT22;55338;43.062;25.624;2022-08-21T05:15:37;23.30;99.90
68387;DHT22;55338;43.062;25.624;2022-08-21T05:18:03;23.30;99.90
68387;DHT22;55338;43.062;25.624;2022-08-21T05:20:29;23.30;99.90
68387;DHT22;55338;43.062;25.624;2022-08-21T05:22:55;23.40;99.90
68387;DHT22;55338;43.062;25.624;2022-08-21T05:25:20;23.40;99.90
68387;DHT22;55338;43.062;25.624;2022-08-21T05:27:46;23.40;99.90
68387;DHT22;55338;43.062;25.624;2022-08-21T05:30:12;23.50;99.40
68387;DHT22;55338;43.062;25.624;2022-08-21T05:32:38;23.50;99.50
68387;DHT22;55338;43.062;25.624;2022-08-21T05:35:05;23.60;99.50
68387;DHT22;55338;43.062;25.624;2022-08-21T05:37:36;23.70;99.40
68387;DHT22;55338;43.062;25.624;2022-08-21T05:40:04;23.70;99.20
68387;DHT22;55338;43.062;25.624;2022-08-21T05:42:30;23.70;98.50
68387;DHT22;55338;43.062;25.624;2022-08-21T05:44:56;23.80;98.50
68387;DHT22;55338;43.062;25.624;2022-08-21T05:47:28;23.90;98.80
68387;DHT22;55338;43.062;25.624;2022-08-21T05:49:54;24.10;98.30
68387;DHT22;55338;43.062;25.624;2022-08-21T05:52:20;24.20;99.00
68387;DHT22;55338;43.062;25.624;2022-08-21T05:54:47;24.30;96.80
68387;DHT22;55338;43.062;25.624;2022-08-21T05:57:12;24.50;97.40
68387;DHT22;55338;43.062;25.624;2022-08-21T05:59:38;24.60;97.90
68387;DHT22;55338;43.062;25.624;2022-08-21T06:02:04;24.70;95.90
68387;DHT22;55338;43.062;25.624;2022-08-21T06:04:30;24.80;95.20
68387;DHT22;55338;43.062;25.624;2022-08-21T06:06:56;24.90;94.70
68387;DHT22;55338;43.062;25.624;2022-08-21T06:09:21;25.00;92.20
68387;DHT22;55338;43.062;25.624;2022-08-21T06:11:47;25.10;93.50
68387;DHT22;55338;43.062;25.624;2022-08-21T06:14:16;25.20;90.40
68387;DHT22;55338;43.062;25.624;2022-08-21T06:16:42;25.20;91.00
68387;DHT22;55338;43.062;25.624;2022-08-21T06:19:19;25.40;91.00
68387;DHT22;55338;43.062;25.624;2022-08-21T06:21:45;25.60;88.70
68387;DHT22;55338;43.062;25.624;2022-08-21T06:24:10;25.70;88.00
68387;DHT22;55338;43.062;25.624;2022-08-21T06:26:36;25.80;88.70
68387;DHT22;55338;43.062;25.624;2022-08-21T06:29:02;25.90;86.30
68387;DHT22;55338;43.062;25.624;2022-08-21T06:31:28;26.00;86.40
68387;DHT22;55338;43.062;25.624;2022-08-21T06:33:54;26.30;86.50
68387;DHT22;55338;43.062;25.624;2022-08-21T06:36:20;26.50;85.30
68387;DHT22;55338;43.062;25.624;2022-08-21T06:38:49;26.70;84.40
68387;DHT22;55338;43.062;25.624;2022-08-21T06:41:15;26.80;83.60
68387;DHT22;55338;43.062;25.624;2022-08-21T06:43:41;26.90;83.40
68387;DHT22;55338;43.062;25.624;2022-08-21T06:46:07;27.00;83.20
68387;DHT22;55338;43.062;25.624;2022-08-21T06:48:33;27.20;84.20
68387;DHT22;55338;43.062;25.624;2022-08-21T06:51:00;27.30;83.40
68387;DHT22;55338;43.062;25.624;2022-08-21T06:53:26;27.20;83.20
68387;DHT22;55338;43.062;25.624;2022-08-21T06:55:52;27.10;82.10
68387;DHT22;55338;43.062;25.624;2022-08-21T06:58:18;27.10;83.10
68387;DHT22;55338;43.062;25.624;2022-08-21T07:00:47;27.10;82.70
68387;DHT22;55338;43.062;25.624;2022-08-21T07:03:41;27.10;83.60
68387;DHT22;55338;43.062;25.624;2022-08-21T07:06:08;27.20;84.10
68387;DHT22;55338;43.062;25.624;2022-08-21T07:08:35;27.30;82.20
68387;DHT22;55338;43.062;25.624;2022-08-21T07:11:02;27.30;81.80
68387;DHT22;55338;43.062;25.624;2022-08-21T07:13:29;27.30;81.50
68387;DHT22;55338;43.062;25.624;2022-08-21T07:15:55;27.40;82.10
68387;DHT22;55338;43.062;25.624;2022-08-21T07:18:21;27.50;80.90
68387;DHT22;55338;43.062;25.624;2022-08-21T07:20:47;27.60;81.60
68387;DHT22;55338;43.062;25.624;2022-08-21T07:23:49;27.70;79.20
68387;DHT22;55338;43.062;25.624;2022-08-21T07:26:47;27.80;78.50
68387;DHT22;55338;43.062;25.624;2022-08-21T07:29:13;28.00;78.90
68387;DHT22;55338;43.062;25.624;2022-08-21T07:31:38;28.10;79.60
68387;DHT22;55338;43.062;25.624;2022-08-21T07:34:04;28.30;77.00
68387;DHT22;55338;43.062;25.624;2022-08-21T07:36:30;28.20;76.80
68387;DHT22;55338;43.062;25.624;2022-08-21T07:38:56;28.10;76.80
68387;DHT22;55338;43.062;25.624;2022-08-21T07:41:25;28.20;76.80
68387;DHT22;55338;43.062;25.624;2022-08-21T07:43:51;28.20;76.40
68387;DHT22;55338;43.062;25.624;2022-08-21T07:46:20;28.30;75.20
68387;DHT22;55338;43.062;25.624;2022-08-21T07:48:46;28.20;75.50
68387;DHT22;55338;43.062;25.624;2022-08-21T07:51:13;28.20;76.60
68387;DHT22;55338;43.062;25.624;2022-08-21T07:53:39;28.40;76.20
68387;DHT22;55338;43.062;25.624;2022-08-21T07:56:06;28.40;74.50
68387;DHT22;55338;43.062;25.624;2022-08-21T07:58:33;28.60;76.20
68387;DHT22;55338;43.062;25.624;2022-08-21T08:00:59;28.80;73.90
68387;DHT22;55338;43.062;25.624;2022-08-21T08:03:25;28.90;73.70
68387;DHT22;55338;43.062;25.624;2022-08-21T08:05:51;29.10;74.20
68387;DHT22;55338;43.062;25.624;2022-08-21T08:08:17;29.10;71.90
68387;DHT22;55338;43.062;25.624;2022-08-21T08:10:43;29.20;73.50
68387;DHT22;55338;43.062;25.624;2022-08-21T08:13:09;29.30;71.50
68387;DHT22;55338;43.062;25.624;2022-08-21T08:15:36;29.20;72.10
68387;DHT22;55338;43.062;25.624;2022-08-21T08:18:02;29.40;72.00
68387;DHT22;55338;43.062;25.624;2022-08-21T08:21:00;29.50;71.60
68387;DHT22;55338;43.062;25.624;2022-08-21T08:23:58;29.60;71.10
68387;DHT22;55338;43.062;25.624;2022-08-21T08:26:24;29.50;71.10
68387;DHT22;55338;43.062;25.624;2022-08-21T08:28:49;29.70;70.40
68387;DHT22;55338;43.062;25.624;2022-08-21T08:31:15;29.70;69.40
68387;DHT22;55338;43.062;25.624;2022-08-21T08:33:41;29.90;70.20
68387;DHT22;55338;43.062;25.624;2022-08-21T08:36:13;30.20;68.90
68387;DHT22;55338;43.062;25.624;2022-08-21T08:38:39;30.50;67.60
68387;DHT22;55338;43.062;25.624;2022-08-21T08:41:17;30.90;67.90
68387;DHT22;55338;43.062;25.624;2022-08-21T08:43:55;31.90;63.60
68387;DHT22;55338;43.062;25.624;2022-08-21T08:46:44;32.30;62.50
68387;DHT22;55338;43.062;25.624;2022-08-21T08:53:38;34.10;56.80
68387;DHT22;55338;43.062;25.624;2022-08-21T08:56:08;34.80;51.80
68387;DHT22;55338;43.062;25.624;2022-08-21T08:58:39;35.30;52.70
68387;DHT22;55338;43.062;25.624;2022-08-21T09:01:15;36.00;51.60
68387;DHT22;55338;43.062;25.624;2022-08-21T09:03:43;36.50;46.30
68387;DHT22;55338;43.062;25.624;2022-08-21T09:11:50;37.50;42.20
68387;DHT22;55338;43.062;25.624;2022-08-21T09:20:32;36.80;44.30
68387;DHT22;55338;43.062;25.624;2022-08-21T09:25:59;37.60;41.30
68387;DHT22;55338;43.062;25.624;2022-08-21T09:28:32;37.40;42.20
68387;DHT22;55338;43.062;25.624;2022-08-21T09:30:58;37.40;42.00
68387;DHT22;55338;43.062;25.624;2022-08-21T09:33:28;37.20;41.70
68387;DHT22;55338;43.062;25.624;2022-08-21T09:35:56;36.70;42.30
68387;DHT22;55338;43.062;25.624;2022-08-21T09:38:30;36.50;44.00
68387;DHT22;55338;43.062;25.624;2022-08-21T09:41:31;36.60;44.50
68387;DHT22;55338;43.062;25.624;2022-08-21T09:43:58;37.00;43.30
68387;DHT22;55338;43.062;25.624;2022-08-21T09:46:26;37.30;41.00
68387;DHT22;55338;43.062;25.624;2022-08-21T09:49:03;36.90;40.00
68387;DHT22;55338;43.062;25.624;2022-08-21T09:51:35;36.80;40.50
68387;DHT22;55338;43.062;25.624;2022-08-21T09:56:50;37.20;39.60
68387;DHT22;55338;43.062;25.624;2022-08-21T09:59:36;37.00;41.70
68387;DHT22;55338;43.062;25.624;2022-08-21T10:05:37;37.80;37.50
68387;DHT22;55338;43.062;25.624;2022-08-21T10:07:43;38.30;37.20
68387;DHT22;55338;43.062;25.624;2022-08-21T10:10:23;38.00;35.40
68387;DHT22;55338;43.062;25.624;2022-08-21T10:16:06;37.00;37.10
68387;DHT22;55338;43.062;25.624;2022-08-21T10:21:56;36.50;38.40
68387;DHT22;55338;43.062;25.624;2022-08-21T10:24:48;36.70;39.00
68387;DHT22;55338;43.062;25.624;2022-08-21T10:30:13;38.10;34.50
68387;DHT22;55338;43.062;25.624;2022-08-21T10:35:41;38.40;34.00
68387;DHT22;55338;43.062;25.624;2022-08-21T10:43:35;37.80;35.80
68387;DHT22;55338;43.062;25.624;2022-08-21T10:46:07;37.90;35.70
68387;DHT22;55338;43.062;25.624;2022-08-21T10:54:35;38.30;33.30
68387;DHT22;55338;43.062;25.624;2022-08-21T10:56:41;38.00;33.80
68387;DHT22;55338;43.062;25.624;2022-08-21T11:04:57;38.70;32.10
68387;DHT22;55338;43.062;25.624;2022-08-21T11:07:37;38.70;32.50
68387;DHT22;55338;43.062;25.624;2022-08-21T11:10:23;38.80;30.90
68387;DHT22;55338;43.062;25.624;2022-08-21T11:13:00;38.70;31.00
68387;DHT22;55338;43.062;25.624;2022-08-21T11:18:29;39.20;30.40
68387;DHT22;55338;43.062;25.624;2022-08-21T11:21:48;39.50;31.30
68387;DHT22;55338;43.062;25.624;2022-08-21T11:24:15;39.60;28.90
68387;DHT22;55338;43.062;25.624;2022-08-21T11:26:47;39.90;28.30
68387;DHT22;55338;43.062;25.624;2022-08-21T11:29:24;40.10;28.30
68387;DHT22;55338;43.062;25.624;2022-08-21T11:34:54;40.20;28.70
68387;DHT22;55338;43.062;25.624;2022-08-21T11:38:31;39.80;26.50
68387;DHT22;55338;43.062;25.624;2022-08-21T11:43:45;40.50;26.30
68387;DHT22;55338;43.062;25.624;2022-08-21T11:49:18;40.80;26.40
68387;DHT22;55338;43.062;25.624;2022-08-21T11:54:40;40.40;25.70
68387;DHT22;55338;43.062;25.624;2022-08-21T11:57:39;40.00;25.80
68387;DHT22;55338;43.062;25.624;2022-08-21T12:00:16;39.90;26.40
68387;DHT22;55338;43.062;25.624;2022-08-21T12:02:50;39.90;26.00
68387;DHT22;55338;43.062;25.624;2022-08-21T12:05:32;40.00;26.20
68387;DHT22;55338;43.062;25.624;2022-08-21T12:08:12;40.10;25.80
68387;DHT22;55338;43.062;25.624;2022-08-21T12:10:58;40.40;25.30
68387;DHT22;55338;43.062;25.624;2022-08-21T12:13:30;40.40;25.00
68387;DHT22;55338;43.062;25.624;2022-08-21T12:16:12;40.30;25.40
68387;DHT22;55338;43.062;25.624;2022-08-21T12:18:39;40.50;24.60
68387;DHT22;55338;43.062;25.624;2022-08-21T12:21:27;40.30;23.60
68387;DHT22;55338;43.062;25.624;2022-08-21T12:26:52;39.50;26.20
68387;DHT22;55338;43.062;25.624;2022-08-21T12:29:27;39.20;25.90
68387;DHT22;55338;43.062;25.624;2022-08-21T12:31:57;38.70;26.50
68387;DHT22;55338;43.062;25.624;2022-08-21T12:34:35;38.00;28.40
68387;DHT22;55338;43.062;25.624;2022-08-21T12:37:11;37.40;29.50
68387;DHT22;55338;43.062;25.624;2022-08-21T12:39:44;37.10;29.30
68387;DHT22;55338;43.062;25.624;2022-08-21T12:44:55;36.30;30.80
68387;DHT22;55338;43.062;25.624;2022-08-21T12:47:32;36.00;32.10
68387;DHT22;55338;43.062;25.624;2022-08-21T12:50:13;35.50;32.20
68387;DHT22;55338;43.062;25.624;2022-08-21T12:53:25;35.30;33.40
68387;DHT22;55338;43.062;25.624;2022-08-21T12:55:52;34.90;33.90
68387;DHT22;55338;43.062;25.624;2022-08-21T12:58:24;34.70;35.70
68387;DHT22;55338;43.062;25.624;2022-08-21T13:01:05;34.40;36.50
68387;DHT22;55338;43.062;25.624;2022-08-21T13:03:35;34.30;36.90
68387;DHT22;55338;43.062;25.624;2022-08-21T13:06:03;34.00;37.80
68387;DHT22;55338;43.062;25.624;2022-08-21T13:08:30;33.60;39.30
68387;DHT22;55338;43.062;25.624;2022-08-21T13:11:05;33.10;42.40
68387;DHT22;55338;43.062;25.624;2022-08-21T13:13:32;32.50;44.90
68387;DHT22;55338;43.062;25.624;2022-08-21T13:16:02;32.00;46.90
68387;DHT22;55338;43.062;25.624;2022-08-21T13:18:31;31.50;48.90
68387;DHT22;55338;43.062;25.624;2022-08-21T13:21:32;30.20;53.30
68387;DHT22;55338;43.062;25.624;2022-08-21T13:26:43;29.00;58.80
68387;DHT22;55338;43.062;25.624;2022-08-21T13:29:11;28.60;60.10
68387;DHT22;55338;43.062;25.624;2022-08-21T13:31:38;28.30;61.10
68387;DHT22;55338;43.062;25.624;2022-08-21T13:34:08;28.00;63.40
68387;DHT22;55338;43.062;25.624;2022-08-21T13:36:39;27.70;64.70
68387;DHT22;55338;43.062;25.624;2022-08-21T13:39:08;27.60;65.60
68387;DHT22;55338;43.062;25.624;2022-08-21T13:41:37;27.50;66.40
68387;DHT22;55338;43.062;25.624;2022-08-21T13:44:14;27.40;67.50
68387;DHT22;55338;43.062;25.624;2022-08-21T13:46:41;27.30;68.40
68387;DHT22;55338;43.062;25.624;2022-08-21T13:49:08;27.30;68.20
68387;DHT22;55338;43.062;25.624;2022-08-21T13:51:35;27.20;69.50
68387;DHT22;55338;43.062;25.624;2022-08-21T13:54:02;27.10;69.40
68387;DHT22;55338;43.062;25.624;2022-08-21T13:56:44;27.20;71.00
68387;DHT22;55338;43.062;25.624;2022-08-21T13:59:11;27.10;70.70
68387;DHT22;55338;43.062;25.624;2022-08-21T14:01:47;27.00;71.70
68387;DHT22;55338;43.062;25.624;2022-08-21T14:04:22;27.00;71.10
68387;DHT22;55338;43.062;25.624;2022-08-21T14:06:49;26.90;72.70
68387;DHT22;55338;43.062;25.624;2022-08-21T14:09:42;27.00;73.50
68387;DHT22;55338;43.062;25.624;2022-08-21T14:12:17;26.90;75.60
68387;DHT22;55338;43.062;25.624;2022-08-21T14:14:45;26.90;75.70
68387;DHT22;55338;43.062;25.624;2022-08-21T14:17:14;26.70;77.60
68387;DHT22;55338;43.062;25.624;2022-08-21T14:19:50;26.70;79.70
68387;DHT22;55338;43.062;25.624;2022-08-21T14:27:56;26.30;74.60
68387;DHT22;55338;43.062;25.624;2022-08-21T14:30:36;26.10;75.20
68387;DHT22;55338;43.062;25.624;2022-08-21T14:33:07;26.00;76.80
68387;DHT22;55338;43.062;25.624;2022-08-21T14:35:34;25.90;77.10
68387;DHT22;55338;43.062;25.624;2022-08-21T14:38:00;25.90;76.00
68387;DHT22;55338;43.062;25.624;2022-08-21T14:40:26;25.80;78.20
68387;DHT22;55338;43.062;25.624;2022-08-21T14:42:53;25.70;80.20
68387;DHT22;55338;43.062;25.624;2022-08-21T14:45:26;25.60;80.30
68387;DHT22;55338;43.062;25.624;2022-08-21T14:47:52;25.50;80.80
68387;DHT22;55338;43.062;25.624;2022-08-21T14:50:18;25.40;80.90
68387;DHT22;55338;43.062;25.624;2022-08-21T14:52:45;25.30;82.10
68387;DHT22;55338;43.062;25.624;2022-08-21T14:55:15;25.20;82.20
68387;DHT22;55338;43.062;25.624;2022-08-21T14:57:47;25.20;82.90
68387;DHT22;55338;43.062;25.624;2022-08-21T15:00:16;25.10;81.60
68387;DHT22;55338;43.062;25.624;2022-08-21T15:02:43;25.10;82.50
68387;DHT22;55338;43.062;25.624;2022-08-21T15:05:09;25.10;81.10
68387;DHT22;55338;43.062;25.624;2022-08-21T15:07:35;25.00;78.90
68387;DHT22;55338;43.062;25.624;2022-08-21T15:10:01;25.00;82.60
68387;DHT22;55338;43.062;25.624;2022-08-21T15:12:27;25.10;85.20
68387;DHT22;55338;43.062;25.624;2022-08-21T15:14:53;25.00;84.00
68387;DHT22;55338;43.062;25.624;2022-08-21T15:17:19;25.00;83.60
68387;DHT22;55338;43.062;25.624;2022-08-21T15:19:45;25.00;85.10
68387;DHT22;55338;43.062;25.624;2022-08-21T15:22:10;24.90;83.40
68387;DHT22;55338;43.062;25.624;2022-08-21T15:24:36;24.80;83.70
68387;DHT22;55338;43.062;25.624;2022-08-21T15:27:03;24.80;83.80
68387;DHT22;55338;43.062;25.624;2022-08-21T15:29:32;24.80;86.90
68387;DHT22;55338;43.062;25.624;2022-08-21T15:32:00;24.80;86.50
68387;DHT22;55338;43.062;25.624;2022-08-21T15:34:27;24.80;85.40
68387;DHT22;55338;43.062;25.624;2022-08-21T15:36:54;24.80;87.40
68387;DHT22;55338;43.062;25.624;2022-08-21T15:39:20;24.80;87.50
68387;DHT22;55338;43.062;25.624;2022-08-21T15:41:46;24.80;87.00
68387;DHT22;55338;43.062;25.624;2022-08-21T15:44:13;24.70;86.30
68387;DHT22;55338;43.062;25.624;2022-08-21T15:46:40;24.60;87.90
68387;DHT22;55338;43.062;25.624;2022-08-21T15:49:06;24.60;90.10
68387;DHT22;55338;43.062;25.624;2022-08-21T15:51:32;24.60;88.60
68387;DHT22;55338;43.062;25.624;2022-08-21T15:53:58;24.50;89.20
68387;DHT22;55338;43.062;25.624;2022-08-21T15:56:28;24.50;90.80
68387;DHT22;55338;43.062;25.624;2022-08-21T15:59:02;24.50;92.70
68387;DHT22;55338;43.062;25.624;2022-08-21T16:01:28;24.30;90.20
68387;DHT22;55338;43.062;25.624;2022-08-21T16:03:55;24.30;92.10
68387;DHT22;55338;43.062;25.624;2022-08-21T16:06:21;24.20;93.50
68387;DHT22;55338;43.062;25.624;2022-08-21T16:08:47;24.20;92.30
68387;DHT22;55338;43.062;25.624;2022-08-21T16:11:14;24.10;92.70
68387;DHT22;55338;43.062;25.624;2022-08-21T16:13:43;24.00;92.80
68387;DHT22;55338;43.062;25.624;2022-08-21T16:16:18;24.10;93.80
68387;DHT22;55338;43.062;25.624;2022-08-21T16:18:45;24.00;94.70
68387;DHT22;55338;43.062;25.624;2022-08-21T16:21:11;23.90;93.70
68387;DHT22;55338;43.062;25.624;2022-08-21T16:23:37;23.80;94.80
68387;DHT22;55338;43.062;25.624;2022-08-21T16:26:04;23.80;95.50
68387;DHT22;55338;43.062;25.624;2022-08-21T16:28:31;23.90;96.10
68387;DHT22;55338;43.062;25.624;2022-08-21T16:30:58;24.00;96.90
68387;DHT22;55338;43.062;25.624;2022-08-21T16:33:31;24.00;95.40
68387;DHT22;55338;43.062;25.624;2022-08-21T16:35:58;23.90;94.90
68387;DHT22;55338;43.062;25.624;2022-08-21T16:38:28;23.90;95.40
68387;DHT22;55338;43.062;25.624;2022-08-21T16:40:54;23.90;96.00
68387;DHT22;55338;43.062;25.624;2022-08-21T16:43:23;23.90;95.70
68387;DHT22;55338;43.062;25.624;2022-08-21T16:45:49;24.00;97.60
68387;DHT22;55338;43.062;25.624;2022-08-21T16:48:15;23.90;97.70
68387;DHT22;55338;43.062;25.624;2022-08-21T16:50:41;23.90;98.00
68387;DHT22;55338;43.062;25.624;2022-08-21T16:53:07;23.90;97.80
68387;DHT22;55338;43.062;25.624;2022-08-21T16:55:34;23.80;98.50
68387;DHT22;55338;43.062;25.624;2022-08-21T16:58:07;23.80;98.50
68387;DHT22;55338;43.062;25.624;2022-08-21T17:00:34;23.80;98.70
68387;DHT22;55338;43.062;25.624;2022-08-21T17:02:59;23.70;97.10